Time;durP1;ratioP1;P1;durP2;ratioP2;P2;SDS_P1;SDS_P2;PMS_P1;PMS_P2;Temp;Humidity;BMP_temperature;BMP_pressure;BME280_temperature;BME280_humidity;BME280_pressure;Samples;Min_cycle;Max_cycle;Signal;HPM_P1;HPM_P2
2023/04/21 00:02:27;;;;;;;15.50;12.07;;;12.60;99.90;;;;;;4893040;29;20091;-80
2023/04/21 00:05:14;;;;;;;14.93;9.90;;;12.60;99.90;;;;;;4893870;29;20055;-82
2023/04/21 00:07:57;;;;;;;12.52;9.18;;;12.70;99.90;;;;;;4869333;29;20048;-82
2023/04/21 00:10:45;;;;;;;12.27;9.73;;;12.50;99.90;;;;;;4858021;29;20180;-76
2023/04/21 00:13:38;;;;;;;14.98;10.65;;;12.50;99.90;;;;;;4901290;29;20059;-82
2023/04/21 00:16:07;;;;;;;14.35;11.68;;;12.50;99.90;;;;;;4890753;29;20040;-81
2023/04/21 00:18:35;;;;;;;18.02;13.23;;;12.40;99.90;;;;;;4888369;29;20052;-79
2023/04/21 00:21:11;;;;;;;18.60;12.98;;;12.20;99.90;;;;;;4904879;29;20047;-78
2023/04/21 00:23:46;;;;;;;22.77;14.32;;;12.30;99.90;;;;;;4885961;29;20405;-77
2023/04/21 00:26:32;;;;;;;25.88;13.82;;;12.30;99.90;;;;;;4903126;29;20067;-81
2023/04/21 00:28:59;;;;;;;18.85;13.02;;;12.30;99.90;;;;;;4888664;29;20047;-80
2023/04/21 00:31:27;;;;;;;22.50;14.48;;;12.20;99.90;;;;;;4901155;29;20574;-76
2023/04/21 00:33:59;;;;;;;19.45;14.50;;;12.20;99.90;;;;;;4873092;29;20129;-80
2023/04/21 00:36:29;;;;;;;22.45;14.82;;;12.10;99.90;;;;;;4886066;29;20389;-75
2023/04/21 00:39:04;;;;;;;21.50;14.63;;;12.10;99.90;;;;;;4875214;29;20049;-77
2023/04/21 00:41:37;;;;;;;21.52;15.05;;;12.10;99.90;;;;;;4886827;29;20049;-77
2023/04/21 00:44:48;;;;;;;19.27;13.27;;;12.00;99.90;;;;;;4862137;29;20045;-77
2023/04/21 00:47:16;;;;;;;19.88;14.65;;;11.90;99.90;;;;;;4870632;29;20208;-83
2023/04/21 00:49:44;;;;;;;25.58;14.23;;;11.70;99.90;;;;;;4887501;29;20036;-83
2023/04/21 00:52:15;;;;;;;18.98;12.63;;;11.70;99.90;;;;;;4871273;29;20052;-79
2023/04/21 00:54:43;;;;;;;19.02;13.02;;;11.70;99.90;;;;;;4906853;29;20522;-81
2023/04/21 00:57:11;;;;;;;20.17;14.05;;;11.80;99.90;;;;;;4901327;29;20506;-78
2023/04/21 00:59:51;;;;;;;20.88;14.93;;;11.80;99.90;;;;;;4884500;29;20041;-75
2023/04/21 01:02:31;;;;;;;20.75;15.45;;;11.70;99.90;;;;;;4871469;29;20052;-76
2023/04/21 01:05:56;;;;;;;20.98;14.38;;;11.50;99.90;;;;;;4878481;29;20044;-83
2023/04/21 01:08:36;;;;;;;19.40;14.77;;;11.60;99.90;;;;;;4904903;29;20075;-77
2023/04/21 01:11:39;;;;;;;18.27;14.13;;;11.50;99.90;;;;;;4871531;29;20049;-81
2023/04/21 01:14:54;;;;;;;;;;;;;;;;;;;;;
2023/04/21 01:17:37;;;;;;;17.85;14.30;;;11.60;99.90;;;;;;4904682;29;20123;-83
2023/04/21 01:20:12;;;;;;;18.80;12.13;;;11.60;99.90;;;;;;4887353;29;20056;-82
2023/04/21 01:22:41;;;;;;;17.63;13.18;;;11.60;99.90;;;;;;4883066;29;20076;-80
2023/04/21 01:25:11;;;;;;;16.30;12.10;;;11.60;99.90;;;;;;4883526;29;20127;-77
2023/04/21 01:27:53;;;;;;;18.75;11.38;;;11.60;99.90;;;;;;4873171;29;20052;-81
2023/04/21 01:30:25;;;;;;;17.10;12.90;;;11.70;99.90;;;;;;4901234;29;20061;-78
2023/04/21 01:32:59;;;;;;;18.17;11.88;;;11.70;99.90;;;;;;4883340;29;20104;-81
2023/04/21 01:35:45;;;;;;;17.20;11.98;;;11.70;99.90;;;;;;4923768;23;20134;-79
2023/04/21 01:38:17;;;;;;;16.85;11.02;;;11.70;99.90;;;;;;4926757;29;20059;-80
2023/04/21 01:40:52;;;;;;;18.58;12.80;;;11.50;99.90;;;;;;4906111;29;20055;-80
2023/04/21 01:43:36;;;;;;;19.50;12.57;;;11.40;99.90;;;;;;4938807;29;20467;-78
2023/04/21 01:46:38;;;;;;;19.38;12.82;;;11.30;99.90;;;;;;4931402;23;20356;-78
2023/04/21 01:49:10;;;;;;;18.38;12.48;;;11.30;99.90;;;;;;4907775;29;20047;-80
2023/04/21 01:51:47;;;;;;;18.80;13.75;;;11.20;99.90;;;;;;4925416;29;20047;-75
2023/04/21 01:54:28;;;;;;;18.50;13.20;;;11.10;99.90;;;;;;4911937;29;20043;-78
2023/04/21 01:56:58;;;;;;;16.35;12.93;;;11.00;99.90;;;;;;4920322;29;20538;-77
2023/04/21 01:59:26;;;;;;;17.92;13.20;;;11.00;99.90;;;;;;4907047;29;20131;-80
2023/04/21 02:01:54;;;;;;;19.45;13.57;;;11.10;99.90;;;;;;4940577;29;20051;-77
2023/04/21 02:04:29;;;;;;;17.30;12.77;;;11.10;99.90;;;;;;4909241;29;20047;-76
2023/04/21 02:07:05;;;;;;;22.00;14.50;;;10.70;99.90;;;;;;4907681;29;20074;-78
2023/04/21 02:09:37;;;;;;;17.08;12.93;;;10.80;99.90;;;;;;4910117;29;20051;-74
2023/04/21 02:12:22;;;;;;;21.95;14.18;;;10.80;99.90;;;;;;4906522;29;20051;-79
2023/04/21 02:14:58;;;;;;;16.65;13.40;;;10.90;99.90;;;;;;4910352;29;20134;-84
2023/04/21 02:17:25;;;;;;;17.58;12.85;;;10.90;99.90;;;;;;4927232;29;20494;-76
2023/04/21 02:19:57;;;;;;;16.42;12.57;;;10.80;99.90;;;;;;4907789;29;20134;-80
2023/04/21 02:22:27;;;;;;;19.42;13.57;;;10.80;99.90;;;;;;4937316;29;20622;-75
2023/04/21 02:24:54;;;;;;;14.53;12.10;;;10.70;99.90;;;;;;4914316;29;20043;-76
2023/04/21 02:27:24;;;;;;;15.40;12.52;;;10.80;99.90;;;;;;4908834;29;20295;-75
2023/04/21 02:29:55;;;;;;;18.08;12.52;;;10.80;99.90;;;;;;4908260;29;20054;-78
2023/04/21 02:32:25;;;;;;;19.08;12.30;;;10.90;99.90;;;;;;4938690;29;20044;-74
2023/04/21 02:35:22;;;;;;;20.30;13.30;;;11.00;99.90;;;;;;4908408;29;20062;-76
2023/04/21 02:37:50;;;;;;;16.60;12.57;;;11.00;99.90;;;;;;4943460;29;20046;-79
2023/04/21 02:40:27;;;;;;;18.33;12.13;;;10.90;99.90;;;;;;4942046;29;20063;-76
2023/04/21 02:43:09;;;;;;;18.45;13.00;;;10.90;99.90;;;;;;4912657;29;20047;-76
2023/04/21 02:45:55;;;;;;;18.83;13.23;;;10.90;99.90;;;;;;4908981;29;20367;-76
2023/04/21 02:48:43;;;;;;;21.63;13.30;;;10.90;99.90;;;;;;4908834;29;20102;-74
2023/04/21 02:51:14;;;;;;;19.55;13.80;;;10.80;99.90;;;;;;4912779;29;20058;-82
2023/04/21 02:53:42;;;;;;;16.58;13.13;;;10.70;99.90;;;;;;4941869;29;20047;-84
2023/04/21 02:56:09;;;;;;;20.65;13.73;;;10.70;99.90;;;;;;4944042;29;20078;-81
2023/04/21 02:58:44;;;;;;;20.40;14.02;;;10.60;99.90;;;;;;4941694;29;20399;-78
2023/04/21 03:01:23;;;;;;;17.45;12.85;;;10.50;99.90;;;;;;4913099;29;20067;-77
2023/04/21 03:03:51;;;;;;;18.42;13.20;;;10.50;99.90;;;;;;4943256;29;20048;-84
2023/04/21 03:06:24;;;;;;;16.95;12.80;;;10.50;99.90;;;;;;4943269;29;20094;-77
2023/04/21 03:08:55;;;;;;;21.35;13.90;;;10.60;99.90;;;;;;4908223;29;20514;-78
2023/04/21 03:11:30;;;;;;;18.70;13.73;;;10.50;99.90;;;;;;4940787;29;20408;-83
2023/04/21 03:14:12;;;;;;;16.63;12.30;;;10.30;99.90;;;;;;4915250;29;20067;-81
2023/04/21 03:16:39;;;;;;;20.73;13.68;;;10.40;99.90;;;;;;4943065;29;20066;-83
2023/04/21 03:19:22;;;;;;;17.42;12.82;;;10.40;99.90;;;;;;4944071;29;20099;-76
2023/04/21 03:22:03;;;;;;;16.65;12.73;;;10.30;99.90;;;;;;4913758;29;20053;-82
2023/04/21 03:24:35;;;;;;;21.90;12.27;;;10.50;99.90;;;;;;4944712;29;20047;-76
2023/04/21 03:27:05;;;;;;;17.23;12.88;;;10.30;99.90;;;;;;4909560;29;20131;-80
2023/04/21 03:29:52;;;;;;;16.75;12.23;;;10.30;99.90;;;;;;4924761;29;20560;-77
2023/04/21 03:32:20;;;;;;;18.40;14.15;;;10.30;99.90;;;;;;4943316;29;20035;-82
2023/04/21 03:34:49;;;;;;;16.98;12.77;;;10.30;99.90;;;;;;4944023;29;20036;-79
2023/04/21 03:37:19;;;;;;;18.00;13.50;;;10.30;99.90;;;;;;4926876;29;20431;-78
2023/04/21 03:40:07;;;;;;;21.40;13.43;;;10.20;99.90;;;;;;4906472;29;20058;-80
2023/04/21 03:42:50;;;;;;;18.40;12.75;;;10.10;99.90;;;;;;4911488;29;20127;-74
2023/04/21 03:45:21;;;;;;;23.08;13.98;;;10.00;99.90;;;;;;4942802;29;20031;-79
2023/04/21 03:47:53;;;;;;;20.60;13.88;;;9.90;99.90;;;;;;4906609;29;20047;-82
2023/04/21 03:50:36;;;;;;;18.60;12.32;;;9.80;99.90;;;;;;4939765;29;20488;-79
2023/04/21 03:53:20;;;;;;;17.55;13.02;;;9.70;99.90;;;;;;4911311;29;20495;-79
2023/04/21 03:55:58;;;;;;;20.48;12.68;;;9.70;99.90;;;;;;4911377;29;20043;-81
2023/04/21 03:58:36;;;;;;;18.33;13.68;;;9.70;99.90;;;;;;4908920;29;20048;-82
2023/04/21 04:01:30;;;;;;;22.48;13.48;;;10.00;99.90;;;;;;4914215;29;20066;-81
2023/04/21 04:04:02;;;;;;;17.48;13.27;;;9.80;99.90;;;;;;4944044;29;20047;-80
2023/04/21 04:06:41;;;;;;;18.52;13.27;;;9.70;99.90;;;;;;4909566;29;20051;-76
2023/04/21 04:09:09;;;;;;;21.10;14.18;;;9.80;99.90;;;;;;4922731;29;20448;-79
2023/04/21 04:11:36;;;;;;;17.20;13.25;;;9.80;99.90;;;;;;4943493;29;20514;-79
2023/04/21 04:14:03;;;;;;;18.10;12.82;;;9.90;99.90;;;;;;4925445;29;20048;-79
2023/04/21 04:16:33;;;;;;;17.90;12.80;;;9.90;99.90;;;;;;4924277;29;20125;-81
2023/04/21 04:19:01;;;;;;;16.85;12.43;;;9.90;99.90;;;;;;4924472;29;20039;-82
2023/04/21 04:21:34;;;;;;;18.85;12.95;;;9.70;99.90;;;;;;4941734;29;20050;-79
2023/04/21 04:24:04;;;;;;;21.30;13.15;;;9.90;99.90;;;;;;4924486;29;20502;-77
2023/04/21 04:26:37;;;;;;;19.73;12.82;;;10.10;99.90;;;;;;4910911;29;20039;-84
2023/04/21 04:29:09;;;;;;;17.90;12.00;;;10.10;99.90;;;;;;4941681;29;20052;-83
2023/04/21 04:32:17;;;;;;;15.93;12.23;;;10.00;99.90;;;;;;4939410;29;20046;-77
2023/04/21 04:34:58;;;;;;;17.23;11.75;;;10.10;99.90;;;;;;4895669;29;20424;-82
2023/04/21 04:37:36;;;;;;;15.77;12.00;;;10.20;99.90;;;;;;4912932;29;20048;-78
2023/04/21 04:40:05;;;;;;;14.30;11.65;;;10.20;99.90;;;;;;4907455;29;20051;-83
2023/04/21 04:42:39;;;;;;;17.88;12.80;;;9.90;99.90;;;;;;4912956;29;20130;-81
2023/04/21 04:45:12;;;;;;;17.70;12.23;;;9.70;99.90;;;;;;4895551;29;20043;-82
2023/04/21 04:47:45;;;;;;;15.07;11.52;;;9.70;99.90;;;;;;4896130;29;20044;-79
2023/04/21 04:50:16;;;;;;;14.95;11.93;;;9.70;99.90;;;;;;4898032;29;20052;-81
2023/04/21 04:52:45;;;;;;;15.95;11.65;;;9.80;99.90;;;;;;4895669;29;20052;-80
2023/04/21 04:55:18;;;;;;;18.33;12.07;;;9.90;99.90;;;;;;4902445;29;20408;-78
2023/04/21 04:57:49;;;;;;;17.33;12.48;;;10.00;99.90;;;;;;4870974;29;20059;-76
2023/04/21 05:00:19;;;;;;;16.70;12.43;;;10.30;99.90;;;;;;4871112;29;20488;-77
2023/04/21 05:02:46;;;;;;;19.55;12.02;;;10.40;99.90;;;;;;4904992;29;20051;-81
2023/04/21 05:05:14;;;;;;;17.77;11.80;;;10.60;99.90;;;;;;4906769;29;20060;-89
2023/04/21 05:07:44;;;;;;;16.08;11.73;;;10.70;99.90;;;;;;4880820;29;20040;-76
2023/04/21 05:10:11;;;;;;;127.15;71.03;;;10.80;99.90;;;;;;4877171;29;20135;-76
2023/04/21 05:12:44;;;;;;;46.10;31.17;;;10.90;99.90;;;;;;4866397;29;20048;-75
2023/04/21 05:15:25;;;;;;;133.68;77.93;;;11.00;99.90;;;;;;4879682;29;20047;-74
2023/04/21 05:18:07;;;;;;;158.07;92.72;;;11.20;99.90;;;;;;4871431;29;20132;-80
2023/04/21 05:20:40;;;;;;;93.43;57.65;;;11.10;99.90;;;;;;4884146;29;20041;-81
2023/04/21 05:23:10;;;;;;;;;;;11.00;99.90;;;;;;4872642;29;20044;-75
2023/04/21 05:25:57;;;;;;;34.15;24.98;;;10.80;99.90;;;;;;4975047;23;20364;-76
2023/04/21 05:28:41;;;;;;;22.77;15.82;;;10.90;99.90;;;;;;4900655;29;20048;-79
2023/04/21 05:31:18;;;;;;;21.13;13.85;;;10.90;99.90;;;;;;4867400;29;20770;-88
2023/04/21 05:33:53;;;;;;;16.25;12.75;;;11.00;99.90;;;;;;4973805;23;20040;-81
2023/04/21 05:36:45;;;;;;;17.55;11.95;;;11.00;99.90;;;;;;4934469;29;20040;-77
2023/04/21 05:39:15;;;;;;;17.30;12.13;;;11.20;99.90;;;;;;4902500;29;20056;-86
2023/04/21 05:41:42;;;;;;;23.27;13.35;;;11.30;99.90;;;;;;4936330;29;20050;-87
2023/04/21 05:44:10;;;;;;;82.97;46.75;;;11.30;99.90;;;;;;4916740;29;20048;-76
2023/04/21 05:46:39;;;;;;;150.23;91.15;;;11.30;99.90;;;;;;4899561;29;20437;-83
2023/04/21 05:49:10;;;;;;;36.60;26.95;;;11.40;99.90;;;;;;4907501;29;20084;-80
2023/04/21 05:52:16;;;;;;;23.10;15.35;;;11.40;99.90;;;;;;4929133;29;20503;-78
2023/04/21 05:55:11;;;;;;;17.30;12.85;;;11.50;99.90;;;;;;4900302;29;20044;-81
2023/04/21 05:57:53;;;;;;;19.20;12.38;;;11.60;99.90;;;;;;4888481;29;20135;-76
2023/04/21 06:00:33;;;;;;;16.50;12.23;;;11.50;99.90;;;;;;4912268;29;20040;-76
2023/04/21 06:03:21;;;;;;;17.15;12.40;;;11.50;99.90;;;;;;4904990;23;20098;-79
2023/04/21 06:07:19;;;;;;;;;;;;;;;;;;;;;
2023/04/21 06:13:18;;;;;;;22.17;13.35;;;11.90;99.90;;;;;;4732964;27;20047;-77
2023/04/21 06:16:00;;;;;;;20.58;13.15;;;11.90;99.90;;;;;;4898232;29;20053;-76
2023/04/21 06:19:38;;;;;;;20.88;13.50;;;11.90;99.90;;;;;;4938028;23;20039;-76
2023/04/21 06:23:01;;;;;;;;;;;;;;;;;;;;;
2023/04/21 06:26:06;;;;;;;19.20;13.40;;;12.40;99.90;;;;;;4848796;29;20180;-78
2023/04/21 06:28:35;;;;;;;20.20;13.32;;;12.50;99.90;;;;;;4890067;23;20052;-80
2023/04/21 06:31:03;;;;;;;19.27;13.35;;;12.70;99.90;;;;;;4898067;29;20065;-78
2023/04/21 06:33:53;;;;;;;17.67;12.85;;;12.70;99.90;;;;;;4882286;29;20040;-78
2023/04/21 06:36:39;;;;;;;17.38;12.35;;;12.80;99.90;;;;;;4884279;29;20051;-77
2023/04/21 06:39:07;;;;;;;18.35;12.77;;;12.90;99.90;;;;;;4913128;29;20054;-78
2023/04/21 06:41:38;;;;;;;15.85;12.48;;;12.90;99.90;;;;;;4913383;29;20050;-74
2023/04/21 06:44:12;;;;;;;20.95;13.63;;;13.00;99.90;;;;;;4892794;29;20131;-77
2023/04/21 06:50:33;;;;;;;21.53;13.17;;;13.30;99.90;;;;;;4914533;29;20192;-77
2023/04/21 06:53:00;;;;;;;16.80;11.88;;;13.30;99.90;;;;;;4915366;29;20052;-75
2023/04/21 06:55:28;;;;;;;16.80;11.55;;;13.30;99.90;;;;;;4886403;29;20059;-78
2023/04/21 06:57:58;;;;;;;20.75;13.32;;;13.40;99.90;;;;;;4917310;29;20044;-75
2023/04/21 07:00:26;;;;;;;33.63;23.33;;;13.40;99.90;;;;;;4886126;29;20048;-74
2023/04/21 07:03:17;;;;;;;33.47;22.10;;;13.60;99.90;;;;;;4886689;29;20051;-80
2023/04/21 07:05:50;;;;;;;21.05;15.10;;;13.70;99.90;;;;;;4879591;29;20135;-76
2023/04/21 07:08:30;;;;;;;19.85;12.45;;;13.70;99.90;;;;;;4891007;29;20075;-77
2023/04/21 07:11:04;;;;;;;16.77;12.68;;;13.60;99.90;;;;;;4883106;29;20219;-79
2023/04/21 07:13:38;;;;;;;13.82;10.98;;;13.70;99.90;;;;;;4918286;29;20054;-77
2023/04/21 07:16:26;;;;;;;19.52;12.50;;;13.80;99.90;;;;;;4902083;29;20529;-78
2023/04/21 07:19:02;;;;;;;18.60;13.45;;;14.00;99.90;;;;;;4869125;29;20144;-81
2023/04/21 07:21:30;;;;;;;19.48;12.52;;;14.10;99.90;;;;;;4882795;29;20063;-82
2023/04/21 07:24:02;;;;;;;15.88;11.45;;;14.10;99.90;;;;;;4901672;29;20055;-76
2023/04/21 07:26:35;;;;;;;18.38;12.02;;;14.10;99.90;;;;;;4909286;23;20051;-75
2023/04/21 07:29:05;;;;;;;16.30;12.40;;;14.20;99.90;;;;;;4905392;29;20050;-84
2023/04/21 07:31:35;;;;;;;16.33;12.18;;;14.20;99.90;;;;;;4933363;29;20044;-76
2023/04/21 07:34:02;;;;;;;16.45;11.40;;;14.20;99.90;;;;;;4915514;29;20138;-74
2023/04/21 07:36:34;;;;;;;15.23;11.38;;;14.30;99.90;;;;;;4900013;29;20076;-74
2023/04/21 07:39:02;;;;;;;15.50;11.00;;;14.40;99.90;;;;;;4904463;29;20075;-77
2023/04/21 07:41:30;;;;;;;16.60;11.55;;;14.40;99.90;;;;;;4903094;29;20044;-85
2023/04/21 07:44:00;;;;;;;17.58;11.40;;;14.40;99.90;;;;;;4901613;29;20523;-74
2023/04/21 07:46:30;;;;;;;15.82;11.52;;;14.60;99.90;;;;;;4891575;29;20068;-78
2023/04/21 07:49:00;;;;;;;15.60;11.02;;;14.80;99.90;;;;;;4902755;29;20051;-77
2023/04/21 07:51:30;;;;;;;15.70;10.23;;;14.90;99.90;;;;;;4905339;29;20414;-75
2023/04/21 07:54:08;;;;;;;16.45;11.30;;;14.90;99.90;;;;;;4898813;29;20072;-85
2023/04/21 07:56:35;;;;;;;16.65;11.05;;;15.10;99.90;;;;;;4921484;29;20466;-73
2023/04/21 07:59:06;;;;;;;16.75;10.93;;;15.20;99.90;;;;;;4896690;29;20052;-76
2023/04/21 08:01:35;;;;;;;15.40;10.60;;;15.20;99.90;;;;;;4914805;29;20369;-75
2023/04/21 08:04:07;;;;;;;16.90;10.63;;;15.30;99.90;;;;;;4905433;29;20051;-73
2023/04/21 08:06:41;;;;;;;15.38;9.90;;;15.40;99.90;;;;;;4905001;29;20131;-75
2023/04/21 08:09:10;;;;;;;19.08;11.50;;;15.50;99.90;;;;;;4886384;29;20056;-80
2023/04/21 08:11:37;;;;;;;13.85;10.13;;;15.60;99.90;;;;;;4903635;29;20035;-80
2023/04/21 08:14:05;;;;;;;19.00;11.02;;;15.70;99.90;;;;;;4927407;29;20127;-80
2023/04/21 08:16:33;;;;;;;22.73;11.15;;;15.70;99.90;;;;;;4915030;29;20452;-77
2023/04/21 08:19:01;;;;;;;17.33;10.90;;;15.70;99.90;;;;;;4903155;29;20416;-83
2023/04/21 08:21:32;;;;;;;17.83;11.25;;;15.80;99.90;;;;;;4917181;29;20562;-74
2023/04/21 08:24:02;;;;;;;17.27;11.13;;;15.90;99.90;;;;;;4904241;29;20051;-82
2023/04/21 08:26:29;;;;;;;15.63;10.95;;;16.00;99.90;;;;;;4927493;29;20462;-74
2023/04/21 08:28:56;;;;;;;15.98;10.63;;;16.10;99.90;;;;;;4899749;29;20079;-75
2023/04/21 08:31:24;;;;;;;16.13;10.57;;;16.20;99.90;;;;;;4904353;29;20063;-81
2023/04/21 08:33:53;;;;;;;14.80;9.93;;;16.20;99.90;;;;;;4934401;29;20040;-80
2023/04/21 08:36:31;;;;;;;15.15;9.77;;;16.40;99.90;;;;;;4936817;29;20067;-80
2023/04/21 08:38:59;;;;;;;12.82;8.77;;;16.50;99.90;;;;;;4905599;29;20051;-75
2023/04/21 08:41:27;;;;;;;12.40;9.00;;;16.50;97.50;;;;;;4900036;29;20048;-74
2023/04/21 08:43:54;;;;;;;13.27;9.30;;;16.60;96.50;;;;;;4899508;29;20539;-84
2023/04/21 08:46:27;;;;;;;10.45;8.05;;;16.70;96.10;;;;;;4929631;29;20040;-75
2023/04/21 08:48:57;;;;;;;12.20;8.43;;;16.80;94.50;;;;;;4903760;29;20055;-79
2023/04/21 08:51:36;;;;;;;13.60;8.20;;;16.90;91.70;;;;;;4915389;29;20043;-79
2023/04/21 08:54:04;;;;;;;11.65;8.02;;;17.10;90.20;;;;;;4899893;29;20044;-79
2023/04/21 08:56:31;;;;;;;11.60;8.63;;;17.20;90.00;;;;;;4912604;29;20523;-80
2023/04/21 08:59:07;;;;;;;16.00;8.63;;;17.40;89.50;;;;;;4930429;29;20045;-76
2023/04/21 09:02:16;;;;;;;13.07;8.55;;;17.30;88.40;;;;;;4902971;29;20108;-74
2023/04/21 09:04:55;;;;;;;11.65;8.25;;;17.20;86.80;;;;;;4907476;29;20052;-75
2023/04/21 09:07:34;;;;;;;12.95;7.38;;;17.50;86.90;;;;;;4902116;29;20441;-75
2023/04/21 09:10:05;;;;;;;14.20;7.57;;;17.80;87.10;;;;;;4894799;29;20070;-73
2023/04/21 09:12:39;;;;;;;11.45;7.78;;;18.10;87.00;;;;;;4903403;29;20107;-77
2023/04/21 09:15:10;;;;;;;12.93;8.38;;;18.20;83.40;;;;;;4887364;29;20063;-83
2023/04/21 09:17:37;;;;;;;;;;;18.00;82.70;;;;;;4933112;29;20515;-76
2023/04/21 09:20:21;;;;;;;11.50;6.90;;;18.20;81.20;;;;;;4913306;29;20294;-77
2023/04/21 09:22:50;;;;;;;10.75;7.45;;;18.40;79.20;;;;;;4901739;29;20054;-81
2023/04/21 09:25:21;;;;;;;11.68;7.15;;;18.60;78.10;;;;;;4931332;29;20047;-73
2023/04/21 09:27:49;;;;;;;12.10;7.53;;;18.50;74.30;;;;;;4901410;29;20398;-74
2023/04/21 09:30:18;;;;;;;10.88;7.60;;;18.50;74.60;;;;;;4896325;29;20459;-78
2023/04/21 09:32:48;;;;;;;11.55;7.15;;;18.80;74.80;;;;;;4925215;29;20407;-74
2023/04/21 09:35:19;;;;;;;12.23;6.93;;;19.00;72.40;;;;;;4906805;29;20135;-72
2023/04/21 09:37:46;;;;;;;10.25;7.43;;;19.10;73.20;;;;;;4896641;29;20128;-79
2023/04/21 09:40:16;;;;;;;10.60;6.97;;;19.00;74.70;;;;;;4925846;29;20048;-78
2023/04/21 09:42:45;;;;;;;10.97;7.53;;;18.70;74.90;;;;;;4903182;29;20044;-80
2023/04/21 09:45:13;;;;;;;10.98;6.60;;;18.60;74.40;;;;;;4920206;29;20310;-78
2023/04/21 09:47:49;;;;;;;10.05;7.30;;;18.40;74.10;;;;;;4914421;29;20055;-78
2023/04/21 09:50:34;;;;;;;10.57;7.25;;;18.20;73.90;;;;;;4896647;29;20036;-76
2023/04/21 09:53:27;;;;;;;10.70;6.97;;;18.00;74.10;;;;;;4898922;29;20074;-76
2023/04/21 09:55:58;;;;;;;11.88;7.20;;;18.30;74.80;;;;;;4913135;29;20055;-75
2023/04/21 09:58:31;;;;;;;10.30;7.35;;;18.50;73.80;;;;;;4901248;29;20131;-73
2023/04/21 10:00:59;;;;;;;12.10;6.63;;;18.60;73.10;;;;;;4891297;23;20044;-75
2023/04/21 10:03:30;;;;;;;10.15;7.50;;;19.00;71.40;;;;;;4896388;29;20147;-73
2023/04/21 10:05:58;;;;;;;15.20;10.02;;;19.10;73.00;;;;;;4865734;29;20044;-74
2023/04/21 10:08:28;;;;;;;13.40;9.73;;;19.20;73.90;;;;;;4865248;29;20476;-71
2023/04/21 10:10:57;;;;;;;14.60;10.30;;;19.40;73.00;;;;;;4864262;29;20051;-73
2023/04/21 10:13:26;;;;;;;;;;;19.40;73.30;;;;;;4864945;29;20441;-80
2023/04/21 10:16:09;;;;;;;10.68;7.40;;;19.10;74.00;;;;;;4887828;29;19923;-78
2023/04/21 10:18:45;;;;;;;10.60;7.22;;;19.50;72.60;;;;;;4877115;29;20045;-80
2023/04/21 10:21:21;;;;;;;12.40;6.75;;;19.60;70.80;;;;;;4895618;29;20040;-76
2023/04/21 10:23:52;;;;;;;10.35;6.65;;;20.10;70.80;;;;;;4875450;29;20060;-75
2023/04/21 10:26:21;;;;;;;12.23;7.03;;;20.20;69.20;;;;;;4879473;29;20047;-80
2023/04/21 10:28:59;;;;;;;11.50;6.95;;;20.30;69.40;;;;;;4885457;29;20105;-73
2023/04/21 10:31:39;;;;;;;12.20;7.53;;;20.20;67.70;;;;;;4864276;29;20436;-74
2023/04/21 10:34:07;;;;;;;10.73;6.90;;;20.50;68.50;;;;;;4884551;29;20136;-80
2023/04/21 10:36:47;;;;;;;12.45;6.88;;;20.90;67.70;;;;;;4888068;29;20405;-78
2023/04/21 10:39:27;;;;;;;10.17;6.57;;;21.10;66.80;;;;;;4880126;29;20448;-81
2023/04/21 10:42:19;;;;;;;10.40;6.65;;;21.20;66.40;;;;;;4890723;29;20099;-74
2023/04/21 10:44:56;;;;;;;9.95;6.90;;;21.10;66.00;;;;;;4869114;29;20076;-74
2023/04/21 10:47:28;;;;;;;10.10;7.10;;;20.90;66.00;;;;;;4876875;29;20052;-73
2023/04/21 10:49:57;;;;;;;9.43;6.53;;;20.50;64.80;;;;;;4884510;29;20131;-79
2023/04/21 10:52:33;;;;;;;8.75;6.72;;;20.50;65.70;;;;;;4895542;29;20537;-77
2023/04/21 10:55:10;;;;;;;11.40;7.15;;;20.60;64.90;;;;;;4883193;29;20401;-73
2023/04/21 10:57:41;;;;;;;10.90;7.00;;;20.50;65.30;;;;;;4876391;29;20069;-79
2023/04/21 11:00:09;;;;;;;11.35;6.90;;;21.10;65.00;;;;;;4883909;29;20061;-76
2023/04/21 11:02:36;;;;;;;11.18;6.95;;;21.20;63.60;;;;;;4869095;29;20053;-77
2023/04/21 11:05:08;;;;;;;10.40;7.93;;;21.20;64.30;;;;;;4890121;29;20039;-80
2023/04/21 11:07:36;;;;;;;8.55;6.20;;;21.30;64.50;;;;;;4885185;29;20071;-74
2023/04/21 11:10:10;;;;;;;11.30;7.93;;;21.20;65.30;;;;;;4871480;29;20041;-74
2023/04/21 11:12:39;;;;;;;10.63;6.97;;;21.20;64.60;;;;;;4901253;29;20068;-73
2023/04/21 11:15:12;;;;;;;11.55;6.95;;;21.20;64.70;;;;;;4900772;29;20041;-76
2023/04/21 11:17:45;;;;;;;9.15;6.53;;;21.30;63.20;;;;;;4899408;29;20110;-78
2023/04/21 11:20:16;;;;;;;7.95;6.53;;;21.10;65.00;;;;;;4883111;29;20512;-82
2023/04/21 11:22:43;;;;;;;10.05;7.20;;;21.10;65.70;;;;;;4896431;29;20048;-74
2023/04/21 11:25:19;;;;;;;10.70;6.45;;;21.10;64.90;;;;;;4879853;29;20064;-80
2023/04/21 11:27:58;;;;;;;8.40;6.90;;;21.50;63.90;;;;;;4872819;29;20100;-79
2023/04/21 11:30:37;;;;;;;10.07;6.40;;;21.90;63.40;;;;;;4882438;29;20059;-74
2023/04/21 11:33:04;;;;;;;9.15;6.50;;;21.60;62.50;;;;;;4858973;29;20045;-79
2023/04/21 11:35:42;;;;;;;8.98;6.43;;;21.50;62.70;;;;;;4880818;29;20505;-78
2023/04/21 11:38:11;;;;;;;10.98;6.97;;;21.60;61.60;;;;;;4867765;29;20076;-80
2023/04/21 11:40:48;;;;;;;8.65;6.28;;;21.60;61.30;;;;;;4881139;29;20049;-81
2023/04/21 11:43:32;;;;;;;9.48;6.43;;;21.50;60.70;;;;;;4900288;29;20506;-76
2023/04/21 11:46:25;;;;;;;9.07;7.00;;;21.80;60.50;;;;;;4890742;23;20373;-75
2023/04/21 11:49:04;;;;;;;10.55;6.95;;;21.80;62.20;;;;;;4902011;29;20075;-75
2023/04/21 11:51:37;;;;;;;10.68;6.45;;;22.00;60.90;;;;;;4901265;29;20445;-80
2023/04/21 11:54:16;;;;;;;9.18;6.38;;;22.20;59.60;;;;;;4893333;29;20140;-78
2023/04/21 11:56:47;;;;;;;13.38;8.02;;;22.00;59.00;;;;;;4878227;29;20404;-77
2023/04/21 11:59:25;;;;;;;10.40;6.55;;;22.10;59.00;;;;;;4880573;29;20055;-78
2023/04/21 12:01:57;;;;;;;8.95;6.45;;;22.30;59.50;;;;;;4895058;29;20040;-78
2023/04/21 12:04:26;;;;;;;8.60;6.55;;;22.50;59.00;;;;;;4881870;29;20057;-78
2023/04/21 12:07:01;;;;;;;10.38;6.60;;;22.60;59.00;;;;;;4898258;29;20426;-71
2023/04/21 12:09:29;;;;;;;7.93;6.03;;;22.60;58.00;;;;;;4880436;29;20378;-74
2023/04/21 12:11:57;;;;;;;9.68;6.75;;;22.80;57.20;;;;;;4862969;29;20147;-75
2023/04/21 12:14:28;;;;;;;9.75;6.43;;;22.90;57.10;;;;;;4896048;29;20072;-78
2023/04/21 12:16:56;;;;;;;;;;;23.40;55.60;;;;;;4896891;29;20040;-74
2023/04/21 12:19:44;;;;;;;9.63;6.20;;;23.90;55.90;;;;;;4880822;29;20373;-73
2023/04/21 12:22:20;;;;;;;18.70;14.75;;;24.00;55.90;;;;;;4879790;29;20045;-76
2023/04/21 12:24:48;;;;;;;22.73;17.00;;;23.90;55.80;;;;;;4881870;29;20459;-72
2023/04/21 12:27:27;;;;;;;9.85;7.75;;;23.90;55.20;;;;;;4897887;29;20159;-81
2023/04/21 12:30:00;;;;;;;9.80;6.53;;;24.00;55.30;;;;;;4888801;29;20044;-77
2023/04/21 12:32:30;;;;;;;10.93;6.60;;;24.10;56.30;;;;;;4898531;29;20412;-77
2023/04/21 12:34:59;;;;;;;12.60;6.93;;;23.80;57.00;;;;;;4875209;29;20051;-82
2023/04/21 12:37:32;;;;;;;8.88;6.55;;;23.20;56.60;;;;;;4900239;29;20430;-75
2023/04/21 12:40:04;;;;;;;8.95;6.10;;;24.20;56.30;;;;;;4884670;29;20076;-80
2023/04/21 12:42:33;;;;;;;10.15;6.68;;;24.20;54.90;;;;;;4883211;29;20112;-78
2023/04/21 12:45:07;;;;;;;7.50;5.85;;;24.30;56.60;;;;;;4877234;29;20396;-74
2023/04/21 12:47:38;;;;;;;9.32;6.22;;;26.00;51.80;;;;;;4898288;29;20053;-76
2023/04/21 12:50:11;;;;;;;9.30;5.55;;;26.30;52.20;;;;;;4896590;29;20056;-76
2023/04/21 12:52:47;;;;;;;8.95;6.30;;;25.70;51.70;;;;;;4881586;29;20072;-77
2023/04/21 12:55:17;;;;;;;8.02;6.30;;;27.30;49.80;;;;;;4895849;29;20501;-75
2023/04/21 12:57:49;;;;;;;10.73;6.40;;;28.00;48.90;;;;;;4926596;23;20225;-80
2023/04/21 13:00:16;;;;;;;10.10;6.50;;;28.20;48.30;;;;;;4915043;29;20046;-79
2023/04/21 13:02:43;;;;;;;8.00;5.90;;;28.80;46.80;;;;;;4914125;29;20042;-76
2023/04/21 13:05:14;;;;;;;8.15;5.47;;;28.80;47.10;;;;;;4883757;29;20032;-78
2023/04/21 13:07:41;;;;;;;7.20;5.50;;;28.50;47.60;;;;;;4913697;29;20240;-79
2023/04/21 13:10:10;;;;;;;9.10;6.25;;;28.90;46.90;;;;;;4898384;29;20476;-76
2023/04/21 13:12:49;;;;;;;8.90;5.70;;;29.60;46.90;;;;;;4911761;29;20040;-77
2023/04/21 13:15:36;;;;;;;7.03;5.53;;;29.20;46.40;;;;;;4885933;29;20092;-81
2023/04/21 13:18:06;;;;;;;7.75;5.70;;;27.30;48.10;;;;;;4882356;29;20375;-79
2023/04/21 13:20:36;;;;;;;7.38;5.50;;;28.20;47.80;;;;;;4881651;29;20048;-75
2023/04/21 13:23:03;;;;;;;7.30;5.60;;;29.80;46.00;;;;;;4882060;29;20507;-77
2023/04/21 13:25:31;;;;;;;10.63;5.72;;;30.50;44.70;;;;;;4886563;29;20075;-75
2023/04/21 13:27:59;;;;;;;8.38;5.82;;;30.80;44.20;;;;;;4914837;29;20119;-77